createdAt,value
2018-06-05T00:00:08.311Z,7.23
2018-06-05T00:02:50.280Z,11.90
2018-06-05T00:05:27.865Z,7.80
2018-06-05T00:08:23.788Z,7.83
2018-06-05T00:11:37.642Z,6.47
2018-06-05T00:14:29.258Z,6.80
2018-06-05T00:17:06.171Z,7.07
2018-06-05T00:19:36.767Z,6.73
2018-06-05T00:22:25.243Z,8.97
2018-06-05T00:25:02.284Z,6.03
2018-06-05T00:27:37.932Z,7.70
2018-06-05T00:30:22.638Z,6.83
2018-06-05T00:33:03.058Z,11.93
2018-06-05T00:35:34.470Z,6.83
2018-06-05T00:38:12.463Z,7.67
2018-06-05T00:40:44.022Z,5.90
2018-06-05T00:43:21.419Z,7.67
2018-06-05T00:45:59.103Z,7.37
2018-06-05T00:48:35.807Z,6.03
2018-06-05T00:54:19.673Z,5.87
2018-06-05T00:56:52.428Z,6.10
2018-06-05T00:59:24.262Z,5.87
2018-06-05T01:01:54.339Z,5.13
2018-06-05T01:04:48.583Z,6.57
2018-06-05T01:07:28.162Z,5.87
2018-06-05T01:10:18.471Z,7.63
2018-06-05T01:15:39.258Z,5.03
2018-06-05T01:18:12.427Z,7.27
2018-06-05T01:20:44.301Z,5.03
2018-06-05T01:23:28.168Z,7.07
2018-06-05T01:26:10.888Z,5.60
2018-06-05T01:28:48.227Z,6.97
2018-06-05T01:31:27.857Z,5.17
2018-06-05T01:34:07.408Z,8.20
2018-06-05T01:36:46.410Z,5.87
2018-06-05T01:39:20.256Z,6.70
2018-06-05T01:41:58.598Z,5.63
2018-06-05T01:44:36.495Z,5.83
2018-06-05T01:47:13.739Z,5.70
2018-06-05T01:50:05.266Z,5.57
2018-06-05T01:52:44.333Z,6.40
2018-06-05T01:55:40.312Z,5.63
2018-06-05T01:59:00.458Z,5.87
2018-06-05T02:01:34.643Z,5.70
2018-06-05T02:04:05.010Z,5.67
2018-06-05T02:06:35.638Z,7.07
2018-06-05T02:09:13.583Z,6.13
2018-06-05T02:11:46.095Z,6.17
2018-06-05T02:14:20.757Z,6.70
2018-06-05T02:17:05.338Z,6.70
2018-06-05T02:19:41.673Z,4.90
2018-06-05T02:22:22.400Z,6.73
2018-06-05T02:24:56.766Z,7.90
2018-06-05T02:27:46.154Z,7.33
2018-06-05T02:30:21.611Z,7.87
2018-06-05T02:33:02.312Z,6.50
2018-06-05T02:35:53.471Z,6.63
2018-06-05T02:42:11.640Z,5.90
2018-06-05T02:44:53.776Z,5.40
2018-06-05T02:47:44.531Z,6.33
2018-06-05T02:50:33.393Z,7.13
2018-06-05T02:53:09.955Z,7.23
2018-06-05T02:55:48.222Z,7.10
2018-06-05T02:58:32.407Z,6.53
2018-06-05T03:01:08.759Z,6.93
2018-06-05T03:03:42.399Z,6.87
2018-06-05T03:06:14.135Z,15.07
2018-06-05T03:08:49.655Z,7.40
2018-06-05T03:11:19.561Z,9.43
2018-06-05T03:13:50.663Z,7.97
2018-06-05T03:16:21.279Z,6.40
2018-06-05T03:18:52.765Z,7.47
2018-06-05T03:21:23.525Z,8.00
2018-06-05T03:23:59.814Z,7.00
2018-06-05T03:26:30.835Z,6.30
2018-06-05T03:29:02.663Z,7.20
2018-06-05T03:31:37.951Z,7.30
2018-06-05T03:34:15.521Z,6.80
2018-06-05T03:36:46.499Z,6.93
2018-06-05T03:39:20.846Z,7.93
2018-06-05T03:41:54.497Z,8.70
2018-06-05T03:44:29.317Z,6.87
2018-06-05T03:47:07.743Z,8.40
2018-06-05T03:49:57.069Z,9.90
2018-06-05T03:52:31.237Z,7.43
2018-06-05T03:55:20.124Z,12.50
2018-06-05T03:57:50.750Z,12.87
2018-06-05T04:00:24.762Z,19.70
2018-06-05T04:02:55.265Z,47.90
2018-06-05T04:05:28.691Z,10.67
2018-06-05T04:08:03.048Z,6.90
2018-06-05T04:10:34.561Z,7.93
2018-06-05T04:13:19.936Z,8.77
2018-06-05T04:15:56.922Z,6.60
2018-06-05T04:18:31.610Z,6.73
2018-06-05T04:21:02.892Z,6.80
2018-06-05T04:23:44.167Z,7.47
2018-06-05T04:26:16.898Z,6.30
2018-06-05T04:28:53.595Z,5.70
2018-06-05T04:31:25.175Z,7.40
2018-06-05T04:34:07.044Z,7.23
2018-06-05T04:36:43.450Z,8.67
2018-06-05T04:39:17.953Z,6.83
2018-06-05T04:41:58.428Z,6.07
2018-06-05T04:44:42.694Z,6.03
2018-06-05T04:47:14.129Z,6.87
2018-06-05T04:49:45.755Z,8.03
2018-06-05T04:52:23.494Z,8.53
2018-06-05T04:54:54.079Z,7.90
2018-06-05T04:57:25.978Z,8.27
2018-06-05T04:59:57.413Z,6.57
2018-06-05T05:02:33.470Z,8.93
2018-06-05T05:05:07.502Z,11.23
2018-06-05T05:07:38.110Z,9.90
2018-06-05T05:10:15.213Z,9.27
2018-06-05T05:12:51.684Z,10.00
2018-06-05T05:15:33.043Z,10.23
2018-06-05T05:18:04.243Z,8.07
2018-06-05T05:20:43.129Z,9.77
2018-06-05T05:23:15.735Z,7.37
2018-06-05T05:25:51.691Z,10.00
2018-06-05T05:28:33.367Z,9.83
2018-06-05T05:31:03.950Z,7.27
2018-06-05T05:33:56.467Z,10.00
2018-06-05T05:36:27.175Z,11.07
2018-06-05T05:39:07.162Z,9.57
2018-06-05T05:41:42.561Z,9.33
2018-06-05T05:44:18.923Z,8.77
2018-06-05T05:46:50.536Z,12.17
2018-06-05T05:49:27.867Z,9.57
2018-06-05T05:52:04.038Z,10.10
2018-06-05T05:54:37.135Z,9.97
2018-06-05T05:57:12.422Z,9.20
2018-06-05T05:59:49.237Z,15.00
2018-06-05T06:02:23.406Z,23.73
2018-06-05T06:04:53.938Z,9.37
2018-06-05T06:07:36.436Z,10.97
2018-06-05T06:10:13.791Z,9.50
2018-06-05T06:13:01.272Z,9.67
2018-06-05T06:15:37.484Z,9.03
2018-06-05T06:18:11.481Z,10.63
2018-06-05T06:20:47.617Z,9.97
2018-06-05T06:23:23.558Z,12.77
2018-06-05T06:26:03.602Z,9.57
2018-06-05T06:28:34.066Z,12.73
2018-06-05T06:31:10.022Z,11.13
2018-06-05T06:33:40.718Z,10.60
2018-06-05T06:36:11.661Z,9.53
2018-06-05T06:38:42.287Z,10.97
2018-06-05T06:41:18.738Z,12.17
2018-06-05T06:43:53.462Z,11.53
2018-06-05T06:46:27.415Z,10.67
2018-06-05T06:49:03.616Z,14.20
2018-06-05T06:51:46.742Z,10.33
2018-06-05T06:54:17.783Z,10.97
2018-06-05T06:56:56.512Z,9.93
2018-06-05T06:59:34.517Z,10.97
2018-06-05T07:02:12.291Z,22.63
2018-06-05T07:04:54.460Z,13.03
2018-06-05T07:07:44.534Z,9.57
2018-06-05T07:10:15.190Z,10.50
2018-06-05T07:12:46.534Z,9.27
2018-06-05T07:15:17.791Z,12.07
2018-06-05T07:17:53.459Z,10.97
2018-06-05T07:20:25.966Z,13.07
2018-06-05T07:23:07.499Z,9.80
2018-06-05T07:25:43.845Z,11.40
2018-06-05T07:28:27.435Z,12.33
2018-06-05T07:31:01.903Z,12.93
2018-06-05T07:33:57.210Z,11.17
2018-06-05T07:36:38.827Z,12.87
2018-06-05T07:39:19.803Z,11.37
2018-06-05T07:41:52.361Z,11.37
2018-06-05T07:44:24.396Z,9.53
2018-06-05T07:46:56.728Z,12.30
2018-06-05T07:49:43.584Z,11.10
2018-06-05T07:52:14.243Z,10.30
2018-06-05T07:54:45.919Z,10.10
2018-06-05T07:57:19.612Z,15.20
2018-06-05T08:00:02.122Z,12.50
2018-06-05T08:02:34.543Z,11.33
2018-06-05T08:05:11.327Z,12.13
2018-06-05T08:07:42.601Z,9.63
2018-06-05T08:10:14.097Z,9.57
2018-06-05T08:12:51.750Z,10.17
2018-06-05T08:15:22.539Z,10.97
2018-06-05T08:17:53.115Z,10.97
2018-06-05T08:20:36.538Z,12.80
2018-06-05T08:23:08.871Z,10.87
2018-06-05T08:25:50.738Z,10.93
2018-06-05T08:28:21.367Z,9.13
2018-06-05T08:30:55.739Z,10.80
2018-06-05T08:33:38.446Z,8.78
2018-06-05T08:36:16.325Z,8.90
2018-06-05T08:38:47.253Z,8.30
2018-06-05T08:41:19.718Z,10.32
2018-06-05T08:44:04.355Z,8.50
2018-06-05T08:46:37.184Z,10.03
2018-06-05T08:49:09.116Z,9.15
2018-06-05T08:51:43.834Z,8.90
2018-06-05T08:54:36.783Z,9.98
2018-06-05T08:57:08.838Z,11.65
2018-06-05T08:59:39.989Z,10.75
2018-06-05T09:02:17.516Z,9.00
2018-06-05T09:04:56.298Z,9.90
2018-06-05T09:07:30.415Z,10.03
2018-06-05T09:10:05.069Z,9.45
2018-06-05T09:12:41.303Z,10.20
2018-06-05T09:15:22.610Z,10.23
2018-06-05T09:18:03.279Z,10.18
2018-06-05T09:20:34.659Z,9.90
2018-06-05T09:23:09.285Z,11.90
2018-06-05T09:25:40.934Z,11.93
2018-06-05T09:28:11.542Z,11.83
2018-06-05T09:30:42.252Z,10.15
2018-06-05T09:33:13.860Z,8.70
2018-06-05T09:36:02.538Z,11.15
2018-06-05T09:38:47.141Z,10.40
2018-06-05T09:41:20.488Z,11.00
2018-06-05T09:43:51.370Z,11.05
2018-06-05T09:46:25.111Z,8.93
2018-06-05T09:49:01.925Z,9.70
2018-06-05T09:51:52.824Z,10.50
2018-06-05T09:54:27.279Z,9.65
2018-06-05T09:57:16.932Z,12.43
2018-06-05T10:00:00.641Z,9.75
2018-06-05T10:02:36.180Z,10.58
2018-06-05T10:05:11.371Z,10.25
2018-06-05T10:07:47.619Z,10.03
2018-06-05T10:10:34.046Z,10.28
2018-06-05T10:13:14.630Z,9.03
2018-06-05T10:15:52.922Z,10.45
2018-06-05T10:18:33.403Z,9.58
2018-06-05T10:21:05.019Z,10.28
2018-06-05T10:23:38.992Z,8.55
2018-06-05T10:26:09.900Z,9.00
2018-06-05T10:28:53.415Z,10.28
2018-06-05T10:31:26.486Z,9.85
2018-06-05T10:34:01.647Z,12.13
2018-06-05T10:36:36.948Z,14.30
2018-06-05T10:39:10.034Z,8.85
2018-06-05T10:41:43.462Z,7.03
2018-06-05T10:44:27.957Z,8.18
2018-06-05T10:46:58.327Z,8.30
2018-06-05T10:49:29.727Z,7.37
2018-06-05T10:52:04.708Z,7.83
2018-06-05T10:54:37.301Z,12.63
2018-06-05T10:57:12.181Z,7.08
2018-06-05T10:59:43.592Z,7.92
2018-06-05T11:02:22.651Z,7.00
2018-06-05T11:04:58.899Z,6.53
2018-06-05T11:07:48.407Z,7.37
2018-06-05T11:10:22.228Z,6.25
2018-06-05T11:13:05.706Z,5.97
2018-06-05T11:15:36.338Z,5.70
2018-06-05T11:18:15.102Z,6.55
2018-06-05T11:20:46.802Z,5.00
2018-06-05T11:23:17.643Z,4.90
2018-06-05T11:25:48.311Z,4.08
2018-06-05T11:28:19.791Z,4.97
2018-06-05T11:30:51.686Z,5.72
2018-06-05T11:33:24.584Z,5.25
2018-06-05T11:35:56.333Z,6.37
2018-06-05T11:38:31.918Z,4.60
2018-06-05T11:41:02.606Z,6.60
2018-06-05T11:43:51.273Z,4.45
2018-06-05T11:46:33.111Z,5.30
2018-06-05T11:49:42.974Z,4.55
2018-06-05T11:52:16.774Z,6.03
2018-06-05T11:54:53.727Z,3.67
2018-06-05T11:57:33.195Z,3.20
2018-06-05T12:00:13.827Z,4.58
2018-06-05T12:02:50.942Z,6.08
2018-06-05T12:05:30.289Z,3.80
2018-06-05T12:08:01.995Z,4.70
2018-06-05T12:10:34.588Z,5.30
2018-06-05T12:13:06.933Z,2.85
2018-06-05T12:15:46.367Z,3.92
2018-06-05T12:18:17.602Z,4.03
2018-06-05T12:20:54.455Z,4.72
2018-06-05T12:23:29.974Z,4.67
2018-06-05T12:26:04.800Z,4.67
2018-06-05T12:28:35.378Z,3.40
2018-06-05T12:31:05.779Z,4.42
2018-06-05T12:33:36.014Z,4.35
2018-06-05T12:36:06.309Z,4.97
2018-06-05T12:38:38.902Z,3.77
2018-06-05T12:41:14.910Z,4.40
2018-06-05T12:43:45.406Z,3.85
2018-06-05T12:46:22.888Z,5.37
2018-06-05T12:48:53.627Z,3.62
2018-06-05T12:51:25.898Z,3.35
2018-06-05T12:53:57.273Z,4.95
2018-06-05T12:56:44.769Z,3.67
2018-06-05T12:59:32.389Z,7.25
2018-06-05T13:02:03.487Z,4.83
2018-06-05T13:04:39.291Z,4.62
2018-06-05T13:07:31.006Z,4.50
2018-06-05T13:10:04.536Z,3.87
2018-06-05T13:12:36.754Z,4.55
2018-06-05T13:15:12.119Z,5.22
2018-06-05T13:21:05.625Z,4.72
2018-06-05T13:23:41.948Z,4.65
2018-06-05T13:26:13.195Z,4.08
2018-06-05T13:28:47.805Z,5.53
2018-06-05T13:31:18.575Z,4.15
2018-06-05T13:33:58.130Z,5.33
2018-06-05T13:36:31.057Z,6.80
2018-06-05T13:39:16.974Z,6.58
2018-06-05T13:41:50.147Z,4.58
2018-06-05T13:44:20.553Z,4.67
2018-06-05T13:47:02.210Z,5.10
2018-06-05T13:49:39.948Z,5.40
2018-06-05T13:52:12.320Z,5.33
2018-06-05T13:54:49.794Z,5.00
2018-06-05T13:57:38.346Z,5.42
2018-06-05T14:00:20.063Z,6.15
2018-06-05T14:02:51.235Z,5.85
2018-06-05T14:05:30.082Z,4.92
2018-06-05T14:08:10.147Z,7.45
2018-06-05T14:10:42.894Z,5.28
2018-06-05T14:13:18.622Z,5.90
2018-06-05T14:15:53.245Z,5.15
2018-06-05T14:18:27.131Z,4.87
2018-06-05T14:21:00.964Z,4.42
2018-06-05T14:23:37.959Z,5.22
2018-06-05T14:26:11.868Z,8.15
2018-06-05T14:28:49.392Z,6.17
2018-06-05T14:31:23.165Z,5.10
2018-06-05T14:33:56.101Z,4.30
2018-06-05T14:36:27.783Z,5.28
2018-06-05T14:39:04.610Z,5.67
2018-06-05T14:41:40.932Z,6.00
2018-06-05T14:44:16.319Z,4.37
2018-06-05T14:46:55.043Z,6.15
2018-06-05T14:49:29.074Z,4.85
2018-06-05T14:52:06.196Z,7.35
2018-06-05T14:54:40.986Z,6.33
2018-06-05T14:57:22.658Z,5.15
2018-06-05T14:59:59.902Z,5.00
2018-06-05T15:02:39.325Z,5.67
2018-06-05T15:05:18.555Z,5.35
2018-06-05T15:07:58.279Z,5.72
2018-06-05T15:10:37.023Z,5.60
2018-06-05T15:13:12.076Z,4.75
2018-06-05T15:15:47.566Z,6.35
2018-06-05T15:18:25.111Z,9.50
2018-06-05T15:20:57.890Z,5.22
2018-06-05T15:23:36.962Z,5.70
2018-06-05T15:26:15.856Z,4.72
2018-06-05T15:28:48.249Z,4.62
2018-06-05T15:31:22.508Z,4.90
2018-06-05T15:33:56.380Z,5.10
2018-06-05T15:36:28.514Z,5.28
2018-06-05T15:39:03.793Z,4.62
2018-06-05T15:41:55.719Z,6.78
2018-06-05T15:44:38.713Z,4.70
2018-06-05T15:47:28.879Z,5.00
2018-06-05T15:50:07.515Z,5.25
2018-06-05T15:52:42.149Z,5.75
2018-06-05T15:55:14.539Z,5.28
2018-06-05T15:58:02.343Z,4.87
2018-06-05T16:00:37.229Z,4.75
2018-06-05T16:03:10.528Z,5.35
2018-06-05T16:05:44.650Z,5.78
2018-06-05T16:08:17.005Z,5.97
2018-06-05T16:10:54.305Z,5.83
2018-06-05T16:13:27.167Z,5.22
2018-06-05T16:16:00.524Z,6.65
2018-06-05T16:18:40.940Z,7.20
2018-06-05T16:21:22.989Z,5.45
2018-06-05T16:27:08.229Z,5.30
2018-06-05T16:29:47.187Z,6.42
2018-06-05T16:32:38.948Z,6.78
2018-06-05T16:35:10.349Z,6.28
2018-06-05T16:37:43.153Z,7.25
2018-06-05T16:40:20.093Z,9.95
2018-06-05T16:43:04.562Z,7.47
2018-06-05T16:45:45.273Z,6.75
2018-06-05T16:48:17.131Z,9.80
2018-06-05T16:50:48.286Z,10.82
2018-06-05T16:53:20.571Z,17.15
2018-06-05T16:55:54.960Z,9.03
2018-06-05T16:58:27.528Z,11.55
2018-06-05T17:01:06.082Z,8.80
2018-06-05T17:03:38.387Z,13.10
2018-06-05T17:06:13.903Z,12.95
2018-06-05T17:08:44.258Z,8.03
2018-06-05T17:11:16.474Z,7.67
2018-06-05T17:13:52.707Z,7.40
2018-06-05T17:16:23.142Z,12.85
2018-06-05T17:18:59.638Z,10.15
2018-06-05T17:21:40.990Z,12.60
2018-06-05T17:24:12.959Z,11.35
2018-06-05T17:26:43.126Z,11.97
2018-06-05T17:29:14.674Z,9.38
2018-06-05T17:31:47.669Z,7.75
2018-06-05T17:34:23.032Z,7.35
2018-06-05T17:36:53.898Z,7.15
2018-06-05T17:39:30.318Z,8.03
2018-06-05T17:42:05.677Z,6.72
2018-06-05T17:44:39.333Z,6.22
2018-06-05T17:47:11.502Z,6.90
2018-06-05T17:49:47.706Z,5.80
2018-06-05T17:52:18.300Z,6.33
2018-06-05T17:54:51.204Z,5.87
2018-06-05T17:57:22.355Z,8.95
2018-06-05T17:59:54.404Z,7.12
2018-06-05T18:02:30.433Z,6.12
2018-06-05T18:05:11.682Z,8.13
2018-06-05T18:07:44.159Z,6.50
2018-06-05T18:10:20.683Z,6.72
2018-06-05T18:12:54.204Z,7.65
2018-06-05T18:15:28.825Z,6.28
2018-06-05T18:20:55.908Z,6.58
2018-06-05T18:23:29.388Z,8.75
2018-06-05T18:26:04.077Z,8.53
2018-06-05T18:29:02.644Z,12.55
2018-06-05T18:31:41.101Z,6.60
2018-06-05T18:34:42.750Z,8.80
2018-06-05T18:37:14.889Z,8.30
2018-06-05T18:39:46.340Z,7.93
2018-06-05T18:42:20.982Z,8.27
2018-06-05T18:44:53.651Z,8.20
2018-06-05T18:47:38.482Z,7.53
2018-06-05T18:50:19.138Z,10.03
2018-06-05T18:52:58.031Z,8.87
2018-06-05T18:55:42.944Z,7.77
2018-06-05T18:58:19.164Z,8.07
2018-06-05T19:00:51.556Z,7.73
2018-06-05T19:03:23.760Z,9.23
2018-06-05T19:06:23.050Z,9.70
2018-06-05T19:09:03.197Z,8.93
2018-06-05T19:11:38.309Z,8.83
2018-06-05T19:14:10.265Z,9.43
2018-06-05T19:17:00.383Z,11.93
2018-06-05T19:19:44.778Z,10.83
2018-06-05T19:22:43.437Z,9.57
2018-06-05T19:25:39.188Z,8.63
2018-06-05T19:28:18.303Z,8.67
2018-06-05T19:30:51.717Z,11.87
2018-06-05T19:33:24.140Z,8.20
2018-06-05T19:36:06.000Z,9.47
2018-06-05T19:38:41.924Z,9.97
2018-06-05T19:41:19.228Z,11.03
2018-06-05T19:44:02.668Z,10.03
2018-06-05T19:46:48.376Z,10.83
2018-06-05T19:49:24.245Z,9.27
2018-06-05T19:51:58.117Z,11.23
2018-06-05T19:54:34.424Z,12.10
2018-06-05T19:57:09.531Z,9.73
2018-06-05T19:59:40.176Z,9.97
2018-06-05T20:02:16.268Z,14.53
2018-06-05T20:04:54.007Z,8.70
2018-06-05T20:07:25.218Z,9.43
2018-06-05T20:10:10.199Z,9.17
2018-06-05T20:12:45.744Z,10.60
2018-06-05T20:15:21.222Z,8.97
2018-06-05T20:17:59.669Z,9.73
2018-06-05T20:20:41.141Z,9.23
2018-06-05T20:23:15.916Z,9.10
2018-06-05T20:25:51.179Z,10.20
2018-06-05T20:28:26.474Z,9.73
2018-06-05T20:31:00.870Z,9.73
2018-06-05T20:33:34.437Z,9.93
2018-06-05T20:36:05.999Z,8.53
2018-06-05T20:38:36.670Z,9.67
2018-06-05T20:41:10.935Z,9.50
2018-06-05T20:43:42.510Z,10.03
2018-06-05T20:46:14.046Z,10.17
2018-06-05T20:48:48.515Z,10.67
2018-06-05T20:51:21.511Z,9.40
2018-06-05T20:53:55.520Z,7.70
2018-06-05T20:56:27.301Z,10.57
2018-06-05T20:59:03.331Z,10.50
2018-06-05T21:01:40.847Z,11.83
2018-06-05T21:04:13.422Z,9.67
2018-06-05T21:06:43.831Z,9.20
2018-06-05T21:09:18.344Z,8.97
2018-06-05T21:11:55.933Z,10.93
2018-06-05T21:14:28.421Z,8.93
2018-06-05T21:17:06.144Z,10.03
2018-06-05T21:19:40.640Z,11.00
2018-06-05T21:22:17.811Z,10.63
2018-06-05T21:24:52.466Z,10.60
2018-06-05T21:27:28.751Z,9.80
2018-06-05T21:30:04.653Z,11.13
2018-06-05T21:32:49.382Z,10.77
2018-06-05T21:35:29.966Z,9.80
2018-06-05T21:38:05.238Z,8.27
2018-06-05T21:40:37.173Z,9.70
2018-06-05T21:43:14.141Z,11.97
2018-06-05T21:45:46.028Z,9.87
2018-06-05T21:48:26.243Z,9.27
2018-06-05T21:51:02.442Z,9.63
2018-06-05T21:53:38.937Z,10.67
2018-06-05T21:56:10.689Z,8.40
2018-06-05T21:58:47.525Z,10.57
2018-06-05T22:01:21.784Z,11.07
2018-06-05T22:03:54.271Z,10.60
2018-06-05T22:06:25.592Z,11.73
2018-06-05T22:09:11.532Z,9.30
2018-06-05T22:11:45.742Z,9.97
2018-06-05T22:14:18.250Z,11.20
2018-06-05T22:16:50.806Z,10.23
2018-06-05T22:19:28.673Z,9.57
2018-06-05T22:21:59.835Z,11.33
2018-06-05T22:24:31.081Z,11.00
2018-06-05T22:27:07.966Z,11.87
2018-06-05T22:29:43.968Z,11.60
2018-06-05T22:32:17.942Z,10.77
2018-06-05T22:34:49.981Z,11.20
2018-06-05T22:37:36.566Z,10.53
2018-06-05T22:40:19.283Z,10.97
2018-06-05T22:43:02.278Z,10.93
2018-06-05T22:45:39.668Z,11.77
2018-06-05T22:48:21.398Z,14.87
2018-06-05T22:51:01.267Z,11.27
2018-06-05T22:53:34.127Z,10.20
2018-06-05T22:56:14.162Z,10.70
2018-06-05T22:58:48.119Z,10.73
2018-06-05T23:01:29.629Z,11.80
2018-06-05T23:04:03.281Z,9.87
2018-06-05T23:06:45.950Z,13.53
2018-06-05T23:09:25.868Z,10.30
2018-06-05T23:12:08.931Z,11.33
2018-06-05T23:14:42.583Z,12.30
2018-06-05T23:17:17.880Z,9.70
2018-06-05T23:19:55.190Z,13.50
2018-06-05T23:22:25.836Z,13.77
2018-06-05T23:25:01.183Z,11.67
2018-06-05T23:27:43.474Z,13.33
2018-06-05T23:30:18.321Z,11.97
2018-06-05T23:32:54.477Z,12.40
2018-06-05T23:35:40.876Z,12.73
2018-06-05T23:38:26.399Z,14.63
2018-06-05T23:41:07.889Z,14.27
2018-06-05T23:43:39.595Z,10.90
2018-06-05T23:46:21.950Z,12.57
2018-06-05T23:48:54.021Z,14.17
2018-06-05T23:51:41.251Z,12.10
2018-06-05T23:54:16.803Z,11.13
2018-06-05T23:56:58.473Z,12.40
2018-06-05T23:59:34.634Z,11.73
